sensor_id;sensor_type;location;lat;lon;timestamp;P1;durP1;ratioP1;P2;durP2;ratioP2
43014;SDS011;28637;50.554;7.032;2023-02-15T00:01:54;57.63;;;11.73;;
43014;SDS011;28637;50.554;7.032;2023-02-15T00:06:54;125.70;;;11.88;;
43014;SDS011;28637;50.554;7.032;2023-02-15T00:11:55;63.85;;;12.95;;
43014;SDS011;28637;50.554;7.032;2023-02-15T00:16:56;96.88;;;11.25;;
43014;SDS011;28637;50.554;7.032;2023-02-15T00:21:59;143.13;;;11.82;;
43014;SDS011;28637;50.554;7.032;2023-02-15T00:27:00;44.55;;;12.90;;
43014;SDS011;28637;50.554;7.032;2023-02-15T00:32:00;156.95;;;12.50;;
43014;SDS011;28637;50.554;7.032;2023-02-15T00:37:01;43.75;;;12.75;;
43014;SDS011;28637;50.554;7.032;2023-02-15T00:42:02;161.35;;;12.65;;
43014;SDS011;28637;50.554;7.032;2023-02-15T00:47:03;68.50;;;11.60;;
43014;SDS011;28637;50.554;7.032;2023-02-15T00:52:03;44.60;;;11.98;;
43014;SDS011;28637;50.554;7.032;2023-02-15T00:57:04;37.50;;;12.90;;
43014;SDS011;28637;50.554;7.032;2023-02-15T01:02:04;133.65;;;12.45;;
43014;SDS011;28637;50.554;7.032;2023-02-15T01:07:06;31.52;;;11.27;;
43014;SDS011;28637;50.554;7.032;2023-02-15T01:12:07;28.10;;;10.90;;
43014;SDS011;28637;50.554;7.032;2023-02-15T01:17:08;222.10;;;10.90;;
43014;SDS011;28637;50.554;7.032;2023-02-15T01:22:09;32.58;;;11.52;;
43014;SDS011;28637;50.554;7.032;2023-02-15T01:27:09;42.90;;;12.35;;
43014;SDS011;28637;50.554;7.032;2023-02-15T01:32:10;24.50;;;11.50;;
43014;SDS011;28637;50.554;7.032;2023-02-15T01:37:11;37.65;;;11.75;;
43014;SDS011;28637;50.554;7.032;2023-02-15T01:42:12;36.42;;;11.50;;
43014;SDS011;28637;50.554;7.032;2023-02-15T01:47:17;45.77;;;11.13;;
43014;SDS011;28637;50.554;7.032;2023-02-15T01:52:22;186.43;;;10.77;;
43014;SDS011;28637;50.554;7.032;2023-02-15T01:57:23;192.68;;;11.93;;
43014;SDS011;28637;50.554;7.032;2023-02-15T02:02:28;39.88;;;10.23;;
43014;SDS011;28637;50.554;7.032;2023-02-15T02:07:29;45.67;;;11.32;;
43014;SDS011;28637;50.554;7.032;2023-02-15T02:12:34;29.73;;;10.50;;
43014;SDS011;28637;50.554;7.032;2023-02-15T02:23:05;29.63;;;10.63;;
43014;SDS011;28637;50.554;7.032;2023-02-15T02:33:25;26.25;;;11.23;;
43014;SDS011;28637;50.554;7.032;2023-02-15T02:49:29;33.30;;;10.67;;
43014;SDS011;28637;50.554;7.032;2023-02-15T02:54:30;40.10;;;10.23;;
43014;SDS011;28637;50.554;7.032;2023-02-15T02:59:36;90.00;;;10.10;;
43014;SDS011;28637;50.554;7.032;2023-02-15T03:04:43;35.63;;;9.15;;
43014;SDS011;28637;50.554;7.032;2023-02-15T03:09:51;30.38;;;9.43;;
43014;SDS011;28637;50.554;7.032;2023-02-15T03:14:54;22.70;;;9.70;;
43014;SDS011;28637;50.554;7.032;2023-02-15T03:20:01;72.68;;;8.90;;
43014;SDS011;28637;50.554;7.032;2023-02-15T03:25:09;22.45;;;10.10;;
43014;SDS011;28637;50.554;7.032;2023-02-15T03:30:12;61.72;;;9.88;;
43014;SDS011;28637;50.554;7.032;2023-02-15T03:35:15;30.20;;;9.05;;
43014;SDS011;28637;50.554;7.032;2023-02-15T03:40:18;33.58;;;9.75;;
43014;SDS011;28637;50.554;7.032;2023-02-15T03:45:39;48.20;;;9.02;;
43014;SDS011;28637;50.554;7.032;2023-02-15T03:50:55;57.80;;;9.00;;
43014;SDS011;28637;50.554;7.032;2023-02-15T03:56:18;48.30;;;8.93;;
43014;SDS011;28637;50.554;7.032;2023-02-15T04:01:22;66.60;;;9.60;;
43014;SDS011;28637;50.554;7.032;2023-02-15T04:06:50;59.45;;;8.65;;
43014;SDS011;28637;50.554;7.032;2023-02-15T04:11:51;37.70;;;8.40;;
43014;SDS011;28637;50.554;7.032;2023-02-15T04:16:51;29.20;;;9.40;;
43014;SDS011;28637;50.554;7.032;2023-02-15T04:21:52;60.13;;;9.00;;
43014;SDS011;28637;50.554;7.032;2023-02-15T04:27:11;84.05;;;8.82;;
43014;SDS011;28637;50.554;7.032;2023-02-15T04:32:12;141.88;;;9.38;;
43014;SDS011;28637;50.554;7.032;2023-02-15T04:37:12;28.52;;;9.13;;
43014;SDS011;28637;50.554;7.032;2023-02-15T04:42:13;31.13;;;8.63;;
43014;SDS011;28637;50.554;7.032;2023-02-15T04:47:14;37.55;;;8.65;;
43014;SDS011;28637;50.554;7.032;2023-02-15T04:52:14;52.00;;;8.33;;
43014;SDS011;28637;50.554;7.032;2023-02-15T04:57:17;26.10;;;8.80;;
43014;SDS011;28637;50.554;7.032;2023-02-15T05:02:17;93.78;;;8.70;;
43014;SDS011;28637;50.554;7.032;2023-02-15T05:07:18;42.72;;;8.60;;
43014;SDS011;28637;50.554;7.032;2023-02-15T05:12:20;24.10;;;9.07;;
43014;SDS011;28637;50.554;7.032;2023-02-15T05:17:21;17.17;;;7.82;;
43014;SDS011;28637;50.554;7.032;2023-02-15T05:22:21;19.48;;;8.60;;
43014;SDS011;28637;50.554;7.032;2023-02-15T05:27:22;31.50;;;8.90;;
43014;SDS011;28637;50.554;7.032;2023-02-15T05:32:41;17.75;;;8.98;;
43014;SDS011;28637;50.554;7.032;2023-02-15T05:37:42;17.98;;;8.85;;
43014;SDS011;28637;50.554;7.032;2023-02-15T05:42:42;43.03;;;8.90;;
43014;SDS011;28637;50.554;7.032;2023-02-15T05:47:43;35.92;;;8.75;;
43014;SDS011;28637;50.554;7.032;2023-02-15T05:52:45;137.45;;;9.35;;
43014;SDS011;28637;50.554;7.032;2023-02-15T05:57:45;61.78;;;8.50;;
43014;SDS011;28637;50.554;7.032;2023-02-15T06:02:46;138.63;;;9.68;;
43014;SDS011;28637;50.554;7.032;2023-02-15T06:07:47;48.67;;;9.77;;
43014;SDS011;28637;50.554;7.032;2023-02-15T06:12:48;42.50;;;9.10;;
43014;SDS011;28637;50.554;7.032;2023-02-15T06:17:48;17.13;;;8.23;;
43014;SDS011;28637;50.554;7.032;2023-02-15T06:22:49;26.60;;;9.00;;
43014;SDS011;28637;50.554;7.032;2023-02-15T06:27:49;120.27;;;9.20;;
43014;SDS011;28637;50.554;7.032;2023-02-15T06:32:50;90.97;;;8.43;;
43014;SDS011;28637;50.554;7.032;2023-02-15T06:37:51;251.65;;;9.93;;
43014;SDS011;28637;50.554;7.032;2023-02-15T06:42:51;226.82;;;9.70;;
43014;SDS011;28637;50.554;7.032;2023-02-15T06:47:52;23.00;;;9.13;;
43014;SDS011;28637;50.554;7.032;2023-02-15T06:52:56;18.33;;;8.80;;
43014;SDS011;28637;50.554;7.032;2023-02-15T06:57:57;103.35;;;9.20;;
43014;SDS011;28637;50.554;7.032;2023-02-15T07:02:58;74.30;;;9.60;;
43014;SDS011;28637;50.554;7.032;2023-02-15T07:07:59;135.88;;;10.00;;
43014;SDS011;28637;50.554;7.032;2023-02-15T07:13:00;28.57;;;8.90;;
43014;SDS011;28637;50.554;7.032;2023-02-15T07:18:01;69.47;;;8.60;;
43014;SDS011;28637;50.554;7.032;2023-02-15T07:23:02;51.05;;;8.93;;
43014;SDS011;28637;50.554;7.032;2023-02-15T07:28:04;18.05;;;8.98;;
43014;SDS011;28637;50.554;7.032;2023-02-15T07:33:04;19.88;;;9.43;;
43014;SDS011;28637;50.554;7.032;2023-02-15T07:38:23;20.13;;;8.82;;
43014;SDS011;28637;50.554;7.032;2023-02-15T07:43:26;18.65;;;8.93;;
43014;SDS011;28637;50.554;7.032;2023-02-15T07:48:27;54.17;;;9.05;;
43014;SDS011;28637;50.554;7.032;2023-02-15T07:53:28;22.23;;;10.03;;
43014;SDS011;28637;50.554;7.032;2023-02-15T07:58:29;20.77;;;9.83;;
43014;SDS011;28637;50.554;7.032;2023-02-15T08:03:48;20.48;;;9.00;;
43014;SDS011;28637;50.554;7.032;2023-02-15T08:08:49;19.60;;;9.20;;
43014;SDS011;28637;50.554;7.032;2023-02-15T08:13:50;45.15;;;10.13;;
43014;SDS011;28637;50.554;7.032;2023-02-15T08:18:54;21.50;;;9.65;;
43014;SDS011;28637;50.554;7.032;2023-02-15T08:23:56;20.83;;;9.85;;
43014;SDS011;28637;50.554;7.032;2023-02-15T08:28:58;20.97;;;9.23;;
43014;SDS011;28637;50.554;7.032;2023-02-15T08:39:01;25.70;;;10.55;;
43014;SDS011;28637;50.554;7.032;2023-02-15T08:44:04;19.05;;;9.73;;
43014;SDS011;28637;50.554;7.032;2023-02-15T08:49:06;22.65;;;10.38;;
43014;SDS011;28637;50.554;7.032;2023-02-15T08:54:12;23.63;;;11.15;;
43014;SDS011;28637;50.554;7.032;2023-02-15T08:59:16;22.75;;;10.10;;
43014;SDS011;28637;50.554;7.032;2023-02-15T09:04:18;21.17;;;10.07;;
43014;SDS011;28637;50.554;7.032;2023-02-15T09:09:19;18.90;;;9.55;;
43014;SDS011;28637;50.554;7.032;2023-02-15T09:14:21;21.33;;;10.07;;
43014;SDS011;28637;50.554;7.032;2023-02-15T09:19:23;21.27;;;10.05;;
43014;SDS011;28637;50.554;7.032;2023-02-15T09:24:24;24.23;;;11.00;;
43014;SDS011;28637;50.554;7.032;2023-02-15T09:29:25;22.10;;;10.38;;
43014;SDS011;28637;50.554;7.032;2023-02-15T09:34:26;19.60;;;10.63;;
43014;SDS011;28637;50.554;7.032;2023-02-15T09:39:26;21.45;;;9.98;;
43014;SDS011;28637;50.554;7.032;2023-02-15T10:06:07;16.88;;;9.30;;
43014;SDS011;28637;50.554;7.032;2023-02-15T10:16:43;18.90;;;9.68;;
43014;SDS011;28637;50.554;7.032;2023-02-15T10:22:04;16.20;;;9.48;;
43014;SDS011;28637;50.554;7.032;2023-02-15T10:27:19;17.33;;;9.60;;
43014;SDS011;28637;50.554;7.032;2023-02-15T10:32:27;17.83;;;9.15;;
43014;SDS011;28637;50.554;7.032;2023-02-15T11:05:29;16.17;;;9.05;;
43014;SDS011;28637;50.554;7.032;2023-02-15T11:10:39;15.25;;;9.13;;
43014;SDS011;28637;50.554;7.032;2023-02-15T11:15:46;13.35;;;8.35;;
43014;SDS011;28637;50.554;7.032;2023-02-15T11:20:55;15.05;;;8.60;;
43014;SDS011;28637;50.554;7.032;2023-02-15T11:26:05;15.27;;;8.63;;
43014;SDS011;28637;50.554;7.032;2023-02-15T11:31:16;13.85;;;8.75;;
43014;SDS011;28637;50.554;7.032;2023-02-15T11:36:33;14.85;;;8.80;;
43014;SDS011;28637;50.554;7.032;2023-02-15T11:41:38;14.02;;;8.77;;
43014;SDS011;28637;50.554;7.032;2023-02-15T11:46:43;12.55;;;8.52;;
43014;SDS011;28637;50.554;7.032;2023-02-15T11:51:44;14.83;;;8.83;;
43014;SDS011;28637;50.554;7.032;2023-02-15T11:56:44;14.03;;;8.77;;
43014;SDS011;28637;50.554;7.032;2023-02-15T12:01:45;15.27;;;9.13;;
43014;SDS011;28637;50.554;7.032;2023-02-15T12:06:55;14.80;;;8.63;;
43014;SDS011;28637;50.554;7.032;2023-02-15T12:12:19;13.05;;;8.32;;
43014;SDS011;28637;50.554;7.032;2023-02-15T12:22:51;15.73;;;9.15;;
43014;SDS011;28637;50.554;7.032;2023-02-15T12:27:54;13.25;;;8.88;;
43014;SDS011;28637;50.554;7.032;2023-02-15T12:38:26;13.45;;;9.13;;
43014;SDS011;28637;50.554;7.032;2023-02-15T12:43:32;16.48;;;10.80;;
43014;SDS011;28637;50.554;7.032;2023-02-15T12:48:34;14.48;;;9.23;;
43014;SDS011;28637;50.554;7.032;2023-02-15T12:53:35;13.03;;;9.10;;
43014;SDS011;28637;50.554;7.032;2023-02-15T12:58:37;13.45;;;8.82;;
43014;SDS011;28637;50.554;7.032;2023-02-15T13:03:59;14.07;;;8.60;;
43014;SDS011;28637;50.554;7.032;2023-02-15T13:09:26;15.52;;;8.77;;
43014;SDS011;28637;50.554;7.032;2023-02-15T13:14:31;12.73;;;8.38;;
43014;SDS011;28637;50.554;7.032;2023-02-15T13:19:48;11.95;;;8.48;;
43014;SDS011;28637;50.554;7.032;2023-02-15T13:24:53;13.75;;;8.52;;
43014;SDS011;28637;50.554;7.032;2023-02-15T13:29:58;11.43;;;8.35;;
43014;SDS011;28637;50.554;7.032;2023-02-15T13:35:03;12.85;;;8.60;;
43014;SDS011;28637;50.554;7.032;2023-02-15T13:40:12;13.00;;;8.98;;
43014;SDS011;28637;50.554;7.032;2023-02-15T13:45:37;16.65;;;8.63;;
43014;SDS011;28637;50.554;7.032;2023-02-15T13:56:00;15.82;;;9.07;;
43014;SDS011;28637;50.554;7.032;2023-02-15T14:22:48;12.32;;;8.40;;
43014;SDS011;28637;50.554;7.032;2023-02-15T14:28:16;12.32;;;8.13;;
43014;SDS011;28637;50.554;7.032;2023-02-15T14:33:32;12.07;;;8.85;;
43014;SDS011;28637;50.554;7.032;2023-02-15T15:09:59;15.50;;;9.23;;
43014;SDS011;28637;50.554;7.032;2023-02-15T15:25:47;14.85;;;9.63;;
43014;SDS011;28637;50.554;7.032;2023-02-15T15:30:51;17.27;;;9.80;;
43014;SDS011;28637;50.554;7.032;2023-02-15T15:52:20;15.65;;;9.52;;
43014;SDS011;28637;50.554;7.032;2023-02-15T16:02:30;14.57;;;9.07;;
43014;SDS011;28637;50.554;7.032;2023-02-15T16:07:31;17.43;;;9.63;;
43014;SDS011;28637;50.554;7.032;2023-02-15T16:12:33;18.60;;;9.48;;
43014;SDS011;28637;50.554;7.032;2023-02-15T16:17:35;20.90;;;10.65;;
43014;SDS011;28637;50.554;7.032;2023-02-15T16:22:35;25.67;;;13.10;;
43014;SDS011;28637;50.554;7.032;2023-02-15T16:27:38;17.13;;;10.13;;
43014;SDS011;28637;50.554;7.032;2023-02-15T16:32:43;16.17;;;8.80;;
43014;SDS011;28637;50.554;7.032;2023-02-15T16:37:44;23.43;;;12.20;;
43014;SDS011;28637;50.554;7.032;2023-02-15T16:42:45;20.85;;;11.15;;
43014;SDS011;28637;50.554;7.032;2023-02-15T16:47:46;15.60;;;9.83;;
43014;SDS011;28637;50.554;7.032;2023-02-15T16:52:50;21.73;;;10.32;;
43014;SDS011;28637;50.554;7.032;2023-02-15T16:57:56;16.48;;;8.77;;
43014;SDS011;28637;50.554;7.032;2023-02-15T17:03:03;19.95;;;8.80;;
43014;SDS011;28637;50.554;7.032;2023-02-15T17:08:11;19.90;;;9.07;;
43014;SDS011;28637;50.554;7.032;2023-02-15T17:13:24;17.17;;;8.68;;
43014;SDS011;28637;50.554;7.032;2023-02-15T17:18:27;19.00;;;8.85;;
43014;SDS011;28637;50.554;7.032;2023-02-15T17:28:35;19.85;;;9.25;;
43014;SDS011;28637;50.554;7.032;2023-02-15T17:33:36;17.33;;;8.70;;
43014;SDS011;28637;50.554;7.032;2023-02-15T17:38:39;19.77;;;9.32;;
43014;SDS011;28637;50.554;7.032;2023-02-15T17:43:58;20.48;;;8.93;;
43014;SDS011;28637;50.554;7.032;2023-02-15T17:49:00;23.55;;;10.57;;
43014;SDS011;28637;50.554;7.032;2023-02-15T17:54:01;20.65;;;9.60;;
43014;SDS011;28637;50.554;7.032;2023-02-15T17:59:21;22.23;;;10.00;;
43014;SDS011;28637;50.554;7.032;2023-02-15T18:04:23;22.90;;;10.95;;
43014;SDS011;28637;50.554;7.032;2023-02-15T18:09:43;20.67;;;10.38;;
43014;SDS011;28637;50.554;7.032;2023-02-15T18:15:03;22.65;;;10.85;;
43014;SDS011;28637;50.554;7.032;2023-02-15T18:20:06;23.33;;;10.98;;
43014;SDS011;28637;50.554;7.032;2023-02-15T18:25:27;21.15;;;10.57;;
43014;SDS011;28637;50.554;7.032;2023-02-15T18:30:28;23.17;;;10.98;;
43014;SDS011;28637;50.554;7.032;2023-02-15T18:35:30;21.40;;;11.40;;
43014;SDS011;28637;50.554;7.032;2023-02-15T18:40:32;23.23;;;11.57;;
43014;SDS011;28637;50.554;7.032;2023-02-15T18:45:33;25.58;;;12.55;;
43014;SDS011;28637;50.554;7.032;2023-02-15T18:50:36;23.92;;;12.13;;
43014;SDS011;28637;50.554;7.032;2023-02-15T18:55:37;23.13;;;11.63;;
43014;SDS011;28637;50.554;7.032;2023-02-15T19:00:38;29.77;;;12.85;;
43014;SDS011;28637;50.554;7.032;2023-02-15T19:05:40;27.48;;;13.45;;
43014;SDS011;28637;50.554;7.032;2023-02-15T19:10:43;26.50;;;13.15;;
43014;SDS011;28637;50.554;7.032;2023-02-15T19:15:44;28.17;;;13.35;;
43014;SDS011;28637;50.554;7.032;2023-02-15T19:20:45;24.98;;;13.38;;
43014;SDS011;28637;50.554;7.032;2023-02-15T19:25:48;26.13;;;12.57;;
43014;SDS011;28637;50.554;7.032;2023-02-15T19:30:50;24.77;;;12.82;;
43014;SDS011;28637;50.554;7.032;2023-02-15T19:35:51;23.58;;;13.15;;
43014;SDS011;28637;50.554;7.032;2023-02-15T19:40:59;29.63;;;13.82;;
43014;SDS011;28637;50.554;7.032;2023-02-15T19:46:03;32.38;;;14.27;;
43014;SDS011;28637;50.554;7.032;2023-02-15T19:51:03;32.08;;;15.63;;
43014;SDS011;28637;50.554;7.032;2023-02-15T19:56:09;32.53;;;14.75;;
43014;SDS011;28637;50.554;7.032;2023-02-15T20:01:16;27.95;;;14.27;;
43014;SDS011;28637;50.554;7.032;2023-02-15T20:06:18;32.47;;;14.57;;
43014;SDS011;28637;50.554;7.032;2023-02-15T20:11:19;29.05;;;14.40;;
43014;SDS011;28637;50.554;7.032;2023-02-15T20:16:20;29.75;;;14.75;;
43014;SDS011;28637;50.554;7.032;2023-02-15T20:21:21;31.30;;;15.07;;
43014;SDS011;28637;50.554;7.032;2023-02-15T20:26:23;34.38;;;14.68;;
43014;SDS011;28637;50.554;7.032;2023-02-15T20:31:28;32.45;;;14.15;;
43014;SDS011;28637;50.554;7.032;2023-02-15T20:36:29;29.83;;;14.43;;
43014;SDS011;28637;50.554;7.032;2023-02-15T20:41:30;29.17;;;14.13;;
43014;SDS011;28637;50.554;7.032;2023-02-15T20:46:46;29.38;;;13.52;;
43014;SDS011;28637;50.554;7.032;2023-02-15T20:51:48;29.25;;;14.20;;
43014;SDS011;28637;50.554;7.032;2023-02-15T20:56:49;26.88;;;13.90;;
43014;SDS011;28637;50.554;7.032;2023-02-15T21:01:51;29.07;;;14.07;;
43014;SDS011;28637;50.554;7.032;2023-02-15T21:06:56;26.95;;;13.45;;
43014;SDS011;28637;50.554;7.032;2023-02-15T21:11:58;30.23;;;14.43;;
43014;SDS011;28637;50.554;7.032;2023-02-15T21:17:01;28.45;;;14.40;;
43014;SDS011;28637;50.554;7.032;2023-02-15T21:22:03;29.27;;;14.75;;
43014;SDS011;28637;50.554;7.032;2023-02-15T21:27:05;30.60;;;14.55;;
43014;SDS011;28637;50.554;7.032;2023-02-15T21:32:09;31.00;;;15.13;;
43014;SDS011;28637;50.554;7.032;2023-02-15T21:37:25;29.48;;;14.52;;
43014;SDS011;28637;50.554;7.032;2023-02-15T21:42:30;30.50;;;14.27;;
43014;SDS011;28637;50.554;7.032;2023-02-15T21:47:49;29.67;;;14.15;;
43014;SDS011;28637;50.554;7.032;2023-02-15T21:52:51;28.05;;;13.98;;
43014;SDS011;28637;50.554;7.032;2023-02-15T21:57:52;33.10;;;14.70;;
43014;SDS011;28637;50.554;7.032;2023-02-15T22:02:54;30.52;;;14.40;;
43014;SDS011;28637;50.554;7.032;2023-02-15T22:07:57;29.48;;;13.88;;
43014;SDS011;28637;50.554;7.032;2023-02-15T22:12:59;27.63;;;14.13;;
43014;SDS011;28637;50.554;7.032;2023-02-15T22:18:00;29.13;;;14.88;;
43014;SDS011;28637;50.554;7.032;2023-02-15T22:23:01;29.40;;;14.30;;
43014;SDS011;28637;50.554;7.032;2023-02-15T22:28:02;30.40;;;14.30;;
43014;SDS011;28637;50.554;7.032;2023-02-15T22:33:03;30.65;;;13.75;;
43014;SDS011;28637;50.554;7.032;2023-02-15T22:38:03;25.88;;;12.80;;
43014;SDS011;28637;50.554;7.032;2023-02-15T22:43:04;25.52;;;13.23;;
43014;SDS011;28637;50.554;7.032;2023-02-15T22:48:09;27.52;;;14.15;;
43014;SDS011;28637;50.554;7.032;2023-02-15T22:53:10;25.00;;;12.43;;
43014;SDS011;28637;50.554;7.032;2023-02-15T22:58:15;28.77;;;13.52;;
43014;SDS011;28637;50.554;7.032;2023-02-15T23:03:24;25.10;;;12.40;;
43014;SDS011;28637;50.554;7.032;2023-02-15T23:08:25;26.33;;;13.25;;
43014;SDS011;28637;50.554;7.032;2023-02-15T23:13:29;27.35;;;13.32;;
43014;SDS011;28637;50.554;7.032;2023-02-15T23:18:37;24.15;;;12.60;;
43014;SDS011;28637;50.554;7.032;2023-02-15T23:23:44;26.30;;;12.73;;
43014;SDS011;28637;50.554;7.032;2023-02-15T23:28:47;28.58;;;14.18;;
43014;SDS011;28637;50.554;7.032;2023-02-15T23:33:48;25.38;;;13.02;;
43014;SDS011;28637;50.554;7.032;2023-02-15T23:38:51;23.55;;;12.35;;
43014;SDS011;28637;50.554;7.032;2023-02-15T23:43:54;34.75;;;16.13;;
43014;SDS011;28637;50.554;7.032;2023-02-15T23:48:59;31.70;;;14.95;;
43014;SDS011;28637;50.554;7.032;2023-02-15T23:54:00;26.90;;;13.35;;
43014;SDS011;28637;50.554;7.032;2023-02-15T23:59:00;33.38;;;15.25;;
